ADDS METAR Data INFO
IDs: Format: Raw Decoded Include TAF

Data at: 0113 UTC 21 Oct 2017

KLLQ 210053Z AUTO 00000KT 10SM CLR 18/16 A3007 RMK AO2 SLP180 T01830156
KLLQ 202353Z AUTO 00000KT 10SM CLR 19/17 A3007 RMK AO2 SLP182 T01890167 10244 20189 58005
KLLQ 202253Z AUTO 00000KT 10SM CLR 22/16 A3008 RMK AO2 SLP185 T02170161
KLLQ 202153Z AUTO 00000KT 10SM CLR 23/14 A3009 RMK AO2 SLP189 T02330144
KLLQ 202053Z AUTO 08005KT 10SM CLR 24/14 A3009 RMK AO2 SLP187 T02390139 56024
KLLQ 201953Z AUTO 11003KT 10SM CLR 24/15 A3010 RMK AO2 SLP190 T02440150
KLLQ 201853Z AUTO 12005KT 10SM CLR 24/15 A3013 RMK AO2 SLP201 T02390150
KLLQ 201753Z AUTO 11007KT 10SM CLR 24/16 A3016 RMK AO2 SLP211 T02390156 10239 20111 58019
KLLQ 201653Z AUTO 14006KT 10SM CLR 23/16 A3020 RMK AO2 SLP223 T02330156
KLLQ 201553Z AUTO 14007KT 10SM CLR 22/15 A3021 RMK AO2 SLP228 T02170150
KLLQ 201453Z AUTO 16005KT 10SM CLR 18/14 A3022 RMK AO2 SLP232 T01780139 51007
KLLQ 201353Z AUTO 11003KT 10SM CLR 15/13 A3022 RMK AO2 SLP232 T01500128
KLLQ 201253Z AUTO 12003KT 10SM CLR 13/11 A3020 RMK AO2 SLP225 T01280111
KLLQ 201153Z AUTO 00000KT 10SM CLR 12/10 A3020 RMK AO2 SLP224 T01170100 10133 20100 51007
KLLQ 201053Z AUTO 00000KT 9SM CLR 11/09 A3020 RMK AO2 SLP223 T01060089
KLLQ 200953Z AUTO 00000KT 10SM CLR 12/10 A3018 RMK AO2 SLP217 T01170100
KLLQ 200853Z AUTO 00000KT 10SM CLR 13/11 A3018 RMK AO2 SLP216 T01280106 58003
KLLQ 200753Z AUTO 00000KT 10SM CLR 12/11 A3018 RMK AO2 SLP217 T01220106
KLLQ 200653Z AUTO 00000KT 7SM CLR 12/11 A3018 RMK AO2 SLP219 T01170106
KLLQ 200553Z AUTO 00000KT 10SM CLR 13/11 A3019 RMK AO2 SLP219 T01280111 10178 20122 402610072 58001
KLLQ 200453Z AUTO 00000KT 10SM CLR 13/12 A3019 RMK AO2 SLP221 T01330117
KLLQ 200353Z AUTO 00000KT 10SM CLR 13/11 A3020 RMK AO2 SLP224 T01280111
KLLQ 200253Z AUTO 00000KT 9SM CLR 14/12 A3019 RMK AO2 SLP221 T01440122 51007
KLLQ 200153Z AUTO 00000KT 9SM CLR 15/13 A3018 RMK AO2 SLP218 T01500128
KLLQ 200053Z AUTO 00000KT 8SM CLR 16/13 A3018 RMK AO2 SLP218 T01560133
KLLQ 192353Z AUTO 00000KT 10SM CLR 18/14 A3017 RMK AO2 SLP214 T01780144 10261 20178 55000
KLLQ 192253Z AUTO 00000KT 10SM CLR 22/14 A3016 RMK AO2 SLP212 T02170139
KLLQ 192153Z AUTO 12005KT 10SM CLR 25/12 A3016 RMK AO2 SLP211 T02500117
KLLQ 192053Z AUTO VRB04KT 10SM CLR 26/11 A3017 RMK AO2 SLP214 T02610111 56020
KLLQ 191953Z AUTO VRB03KT 10SM CLR 25/12 A3018 RMK AO2 SLP217 T02500117
KLLQ 191853Z AUTO 13005KT 10SM CLR 25/12 A3019 RMK AO2 SLP222 T02500122
KLLQ 191753Z AUTO 10003KT 10SM CLR 24/12 A3023 RMK AO2 SLP233 T02440122 10250 20072 58012
KLLQ 191653Z AUTO VRB04KT 10SM CLR 22/14 A3025 RMK AO2 SLP243 T02220139
KLLQ 191553Z AUTO 13004KT 10SM CLR 19/13 A3026 RMK AO2 SLP247 T01940128
KLLQ 191453Z AUTO 15004KT 10SM CLR 17/11 A3026 RMK AO2 SLP245 T01670106 51016
KLLQ 191353Z AUTO 00000KT 10SM CLR 14/10 A3025 RMK AO2 SLP240 T01440100